createdAt,value
2018-02-02T00:00:59.470Z,84.00
2018-02-02T00:03:27.705Z,86.50
2018-02-02T00:05:56.797Z,82.30
2018-02-02T00:08:25.038Z,82.30
2018-02-02T00:10:53.282Z,82.40
2018-02-02T00:13:21.858Z,82.30
2018-02-02T00:15:50.093Z,81.40
2018-02-02T00:18:18.335Z,83.70
2018-02-02T00:20:46.689Z,83.60
2018-02-02T00:23:14.925Z,82.10
2018-02-02T00:25:43.161Z,82.10
2018-02-02T00:28:11.597Z,84.50
2018-02-02T00:30:39.846Z,83.80
2018-02-02T00:33:09.142Z,83.70
2018-02-02T00:35:37.401Z,82.50
2018-02-02T00:38:05.637Z,85.70
2018-02-02T00:40:34.641Z,85.50
2018-02-02T00:43:02.901Z,85.40
2018-02-02T00:45:31.141Z,88.70
2018-02-02T00:47:59.379Z,87.40
2018-02-02T00:50:33.337Z,85.40
2018-02-02T00:53:01.582Z,84.80
2018-02-02T00:55:29.817Z,84.00
2018-02-02T00:57:58.841Z,84.10
2018-02-02T01:00:27.181Z,83.90
2018-02-02T01:02:56.185Z,85.60
2018-02-02T01:05:29.149Z,86.30
2018-02-02T01:07:57.381Z,86.20
2018-02-02T01:10:25.618Z,86.10
2018-02-02T01:12:55.205Z,84.10
2018-02-02T01:15:23.910Z,84.00
2018-02-02T01:17:52.914Z,89.40
2018-02-02T01:20:21.945Z,85.60
2018-02-02T01:22:50.182Z,85.60
2018-02-02T01:25:18.425Z,87.70
2018-02-02T01:27:46.676Z,89.40
2018-02-02T01:30:14.921Z,86.80
2018-02-02T01:32:44.369Z,84.80
2018-02-02T01:35:12.829Z,85.10
2018-02-02T01:37:41.066Z,85.20
2018-02-02T01:40:09.301Z,84.20
2018-02-02T01:42:37.557Z,85.60
2018-02-02T01:45:05.795Z,84.30
2018-02-02T01:47:34.029Z,85.40
2018-02-02T01:50:02.296Z,84.20
2018-02-02T01:52:30.525Z,84.70
2018-02-02T01:54:59.525Z,85.40
2018-02-02T01:57:28.858Z,84.90
2018-02-02T01:59:57.094Z,84.90
2018-02-02T02:02:25.537Z,89.40
2018-02-02T02:04:53.800Z,86.90
2018-02-02T02:07:22.033Z,88.80
2018-02-02T02:09:51.060Z,88.30
2018-02-02T02:12:19.382Z,88.30
2018-02-02T02:14:47.621Z,85.90
2018-02-02T02:17:16.160Z,85.90
2018-02-02T02:19:45.496Z,85.30
2018-02-02T02:22:13.842Z,85.20
2018-02-02T02:24:42.851Z,85.60
2018-02-02T02:27:11.873Z,86.40
2018-02-02T02:29:40.113Z,86.30
2018-02-02T02:32:08.357Z,87.40
2018-02-02T02:34:37.402Z,86.50
2018-02-02T02:37:05.649Z,86.50
2018-02-02T02:39:34.669Z,87.90
2018-02-02T02:42:03.558Z,87.80
2018-02-02T02:44:31.802Z,87.30
2018-02-02T02:47:00.810Z,90.40
2018-02-02T02:49:29.077Z,90.40
2018-02-02T02:51:57.309Z,89.40
2018-02-02T02:54:25.550Z,89.30
2018-02-02T02:56:53.812Z,90.10
2018-02-02T02:59:22.054Z,87.80
2018-02-02T03:01:50.297Z,86.70
2018-02-02T03:04:18.785Z,85.70
2018-02-02T03:06:47.025Z,87.70
2018-02-02T03:09:15.269Z,88.50
2018-02-02T03:11:43.530Z,87.10
2018-02-02T03:14:11.770Z,86.10
2018-02-02T03:16:40.005Z,90.20
2018-02-02T03:19:08.733Z,89.30
2018-02-02T03:21:36.977Z,87.90
2018-02-02T03:24:05.218Z,87.60
2018-02-02T03:26:33.589Z,87.80
2018-02-02T03:29:01.825Z,87.30
2018-02-02T03:31:30.070Z,87.20
2018-02-02T03:33:58.337Z,86.60
2018-02-02T03:36:26.577Z,87.50
2018-02-02T03:38:54.825Z,89.20
2018-02-02T03:41:23.854Z,89.20
2018-02-02T03:43:52.099Z,89.20
2018-02-02T03:46:20.333Z,88.20
2018-02-02T03:48:48.997Z,90.70
2018-02-02T03:51:17.241Z,88.10
2018-02-02T03:53:45.485Z,89.40
2018-02-02T03:56:13.753Z,87.90
2018-02-02T03:58:41.985Z,89.80
2018-02-02T04:01:10.234Z,88.40
2018-02-02T04:03:39.257Z,87.90
2018-02-02T04:06:08.683Z,87.90
2018-02-02T04:08:36.914Z,90.10
2018-02-02T04:11:06.029Z,90.60
2018-02-02T04:13:34.273Z,90.60
2018-02-02T04:16:02.519Z,89.30
2018-02-02T04:18:30.777Z,89.00
2018-02-02T04:20:59.426Z,89.00
2018-02-02T04:23:28.433Z,90.40
2018-02-02T04:25:56.697Z,90.40
2018-02-02T04:28:24.945Z,88.50
2018-02-02T04:30:53.957Z,88.80
2018-02-02T04:33:22.589Z,88.80
2018-02-02T04:35:50.829Z,87.50
2018-02-02T04:38:19.069Z,90.50
2018-02-02T04:40:47.333Z,88.90
2018-02-02T04:43:15.578Z,90.20
2018-02-02T04:45:43.829Z,89.00
2018-02-02T04:48:12.865Z,90.20
2018-02-02T04:50:41.109Z,90.20
2018-02-02T04:53:09.350Z,90.60
2018-02-02T04:55:37.813Z,90.80
2018-02-02T04:58:06.057Z,91.60
2018-02-02T05:00:34.369Z,91.10
2018-02-02T05:03:02.647Z,91.30
2018-02-02T05:05:30.881Z,91.10
2018-02-02T05:07:59.114Z,91.60
2018-02-02T05:10:27.373Z,91.60
2018-02-02T05:12:55.613Z,91.70
2018-02-02T05:15:23.853Z,91.10
2018-02-02T05:17:53.125Z,87.10
2018-02-02T05:20:21.346Z,87.10
2018-02-02T05:22:50.125Z,83.90
2018-02-02T05:25:18.385Z,83.50
2018-02-02T05:27:46.850Z,84.60
2018-02-02T05:30:15.086Z,82.50
2018-02-02T05:32:43.350Z,81.60
2018-02-02T05:35:12.363Z,83.60
2018-02-02T05:37:40.718Z,83.70
2018-02-02T05:40:10.089Z,83.30
2018-02-02T05:42:38.301Z,83.20
2018-02-02T05:45:06.545Z,87.30
2018-02-02T05:47:34.813Z,85.70
2018-02-02T05:50:03.049Z,87.50
2018-02-02T05:52:31.289Z,90.00
2018-02-02T05:55:00.317Z,88.60
2018-02-02T05:57:28.562Z,87.90
2018-02-02T05:59:56.800Z,90.10
2018-02-02T06:02:25.470Z,91.20
2018-02-02T06:04:53.765Z,91.70
2018-02-02T06:07:22.001Z,88.90
2018-02-02T06:09:50.269Z,89.20
2018-02-02T06:12:19.270Z,87.90
2018-02-02T06:14:48.269Z,90.20
2018-02-02T06:17:16.533Z,90.20
2018-02-02T06:19:44.769Z,88.40
2018-02-02T06:22:13.006Z,90.00
2018-02-02T06:24:41.807Z,89.30
2018-02-02T06:27:10.045Z,85.20
2018-02-02T06:29:38.285Z,84.70
2018-02-02T06:32:06.550Z,85.90
2018-02-02T06:34:34.830Z,84.90
2018-02-02T06:37:04.849Z,84.50
2018-02-02T06:39:33.116Z,82.50
2018-02-02T06:42:01.348Z,83.30
2018-02-02T06:44:30.349Z,86.60
2018-02-02T06:46:59.682Z,86.00
2018-02-02T06:49:27.921Z,86.00
2018-02-02T06:51:56.157Z,87.70
2018-02-02T06:54:24.445Z,87.60
2018-02-02T06:56:52.698Z,87.50
2018-02-02T06:59:20.926Z,86.40
2018-02-02T07:01:49.957Z,86.40
2018-02-02T07:04:18.185Z,86.40
2018-02-02T07:06:46.420Z,87.90
2018-02-02T07:09:15.091Z,86.50
2018-02-02T07:11:43.330Z,85.90
2018-02-02T07:14:11.565Z,84.40
2018-02-02T07:16:40.226Z,85.90
2018-02-02T07:19:08.460Z,84.90
2018-02-02T07:21:36.701Z,84.10
2018-02-02T07:24:04.974Z,84.00
2018-02-02T07:26:33.406Z,84.40
2018-02-02T07:29:02.413Z,86.10
2018-02-02T07:31:30.862Z,86.10
2018-02-02T07:33:59.100Z,85.70
2018-02-02T07:36:27.346Z,86.20
2018-02-02T07:38:55.622Z,86.00
2018-02-02T07:41:23.861Z,85.60
2018-02-02T07:43:52.213Z,86.00
2018-02-02T07:46:20.454Z,87.50
2018-02-02T07:48:48.706Z,86.90
2018-02-02T07:51:16.949Z,85.60
2018-02-02T07:53:45.509Z,84.20
2018-02-02T07:56:13.741Z,80.10
2018-02-02T07:58:41.974Z,77.70
2018-02-02T08:01:15.757Z,77.80
2018-02-02T08:03:43.997Z,78.20
2018-02-02T08:06:12.997Z,79.10
2018-02-02T08:08:42.026Z,81.40
2018-02-02T08:11:10.262Z,81.40
2018-02-02T08:13:38.497Z,82.60
2018-02-02T08:16:07.166Z,79.90
2018-02-02T08:18:35.461Z,81.40
2018-02-02T08:21:03.701Z,78.30
2018-02-02T08:23:31.959Z,77.10
2018-02-02T08:26:00.972Z,80.30
2018-02-02T08:28:29.369Z,80.30
2018-02-02T08:30:58.484Z,77.60
2018-02-02T08:33:26.773Z,77.50
2018-02-02T08:35:55.010Z,74.50
2018-02-02T08:38:23.427Z,76.20
2018-02-02T08:40:51.662Z,77.00
2018-02-02T08:43:19.901Z,75.70
2018-02-02T08:45:48.157Z,76.30
2018-02-02T08:48:16.405Z,77.90
2018-02-02T08:50:44.641Z,75.90
2018-02-02T08:53:12.910Z,75.30
2018-02-02T08:55:41.152Z,75.70
2018-02-02T08:58:09.393Z,76.90
2018-02-02T09:00:37.993Z,78.40
2018-02-02T09:03:06.230Z,79.20
2018-02-02T09:05:34.569Z,80.00
2018-02-02T09:08:02.810Z,77.70
2018-02-02T09:10:31.081Z,77.90
2018-02-02T09:12:59.325Z,76.90
2018-02-02T09:15:28.529Z,77.70
2018-02-02T09:17:57.529Z,76.50
2018-02-02T09:20:26.545Z,77.20
2018-02-02T09:22:54.941Z,77.10
2018-02-02T09:25:23.180Z,77.00
2018-02-02T09:27:50.934Z,76.30
2018-02-02T09:30:19.761Z,75.70
2018-02-02T09:32:47.996Z,77.40
2018-02-02T09:35:16.349Z,78.70
2018-02-02T09:37:44.593Z,79.50
2018-02-02T09:40:12.837Z,77.50
2018-02-02T09:42:41.602Z,77.20
2018-02-02T09:45:10.358Z,78.00
2018-02-02T09:47:38.593Z,76.30
2018-02-02T09:50:06.842Z,75.80
2018-02-02T09:52:35.309Z,77.50
2018-02-02T09:55:03.525Z,78.00
2018-02-02T09:57:32.543Z,76.90
2018-02-02T10:00:00.818Z,76.80
2018-02-02T10:02:29.049Z,75.20
2018-02-02T10:04:58.249Z,76.70
2018-02-02T10:07:26.811Z,76.70
2018-02-02T10:09:55.397Z,75.70
2018-02-02T10:12:23.810Z,74.90
2018-02-02T10:14:52.834Z,75.30
2018-02-02T10:17:21.069Z,75.50
2018-02-02T10:19:49.305Z,76.30
2018-02-02T10:22:17.570Z,75.50
2018-02-02T10:24:47.192Z,76.10
2018-02-02T10:27:15.413Z,75.60
2018-02-02T10:29:44.256Z,75.00
2018-02-02T10:32:13.830Z,74.60
2018-02-02T10:34:44.228Z,74.20
2018-02-02T10:37:13.124Z,74.20
2018-02-02T10:39:43.237Z,71.90
2018-02-02T10:42:11.928Z,71.90
2018-02-02T10:44:40.186Z,70.80
2018-02-02T10:47:08.411Z,72.30
2018-02-02T10:49:37.425Z,72.80
2018-02-02T10:52:06.117Z,72.50
2018-02-02T10:54:34.353Z,71.70
2018-02-02T10:57:02.601Z,69.50
2018-02-02T10:59:30.849Z,70.90
2018-02-02T11:02:04.668Z,70.40
2018-02-02T11:04:32.926Z,69.00
2018-02-02T11:07:01.198Z,72.50
2018-02-02T11:09:29.578Z,72.80
2018-02-02T11:11:58.083Z,72.90
2018-02-02T11:14:26.306Z,72.90
2018-02-02T11:16:54.548Z,72.40
2018-02-02T11:19:22.805Z,72.90
2018-02-02T11:21:54.021Z,72.80
2018-02-02T11:24:22.257Z,71.20
2018-02-02T11:26:50.536Z,72.70
2018-02-02T11:29:18.765Z,74.30
2018-02-02T11:31:47.001Z,72.90
2018-02-02T11:34:16.246Z,73.60
2018-02-02T11:36:44.554Z,73.50
2018-02-02T11:39:12.781Z,72.50
2018-02-02T11:41:41.041Z,72.80
2018-02-02T11:44:10.041Z,73.40
2018-02-02T11:46:38.280Z,73.30
2018-02-02T11:49:06.536Z,73.80
2018-02-02T11:51:34.779Z,75.10
2018-02-02T11:54:03.007Z,75.60
2018-02-02T11:56:31.350Z,75.90
2018-02-02T11:58:59.572Z,73.70
2018-02-02T12:01:27.797Z,74.90
2018-02-02T12:03:56.057Z,75.00
2018-02-02T12:06:24.302Z,74.30
2018-02-02T12:08:52.542Z,74.20
2018-02-02T12:11:20.806Z,75.60
2018-02-02T12:13:49.042Z,76.00
2018-02-02T12:16:18.049Z,75.50
2018-02-02T12:18:47.500Z,76.90
2018-02-02T12:21:15.717Z,76.90
2018-02-02T12:23:50.566Z,74.00
2018-02-02T12:26:34.458Z,73.30
2018-02-02T12:29:18.402Z,73.20
2018-02-02T12:31:59.527Z,74.50
2018-02-02T12:34:43.517Z,72.20
2018-02-02T12:37:11.742Z,73.20
2018-02-02T12:39:40.740Z,71.90
2018-02-02T12:42:09.038Z,71.70
2018-02-02T12:44:37.648Z,73.50
2018-02-02T12:47:06.026Z,73.50
2018-02-02T12:49:35.106Z,71.30
2018-02-02T12:52:03.342Z,70.90
2018-02-02T12:54:31.641Z,71.80
2018-02-02T12:57:00.601Z,72.50
2018-02-02T12:59:29.605Z,75.40
2018-02-02T13:01:58.643Z,76.20
2018-02-02T13:04:27.637Z,77.60
2018-02-02T13:06:55.873Z,76.70
2018-02-02T13:09:24.105Z,76.40
2018-02-02T13:11:52.366Z,77.40
2018-02-02T13:14:20.602Z,76.30
2018-02-02T13:16:48.838Z,76.50
2018-02-02T13:19:17.153Z,76.60
2018-02-02T13:21:45.393Z,75.80
2018-02-02T13:24:13.681Z,75.60
2018-02-02T13:26:41.901Z,75.50
2018-02-02T13:29:10.140Z,76.70
2018-02-02T13:31:38.378Z,76.90
2018-02-02T13:34:10.582Z,78.20
2018-02-02T13:36:39.249Z,72.50
2018-02-02T13:39:07.498Z,70.40
2018-02-02T13:41:36.091Z,67.30
2018-02-02T13:44:04.322Z,68.00
2018-02-02T13:46:32.561Z,73.40
2018-02-02T13:49:00.821Z,71.30
2018-02-02T13:51:29.070Z,67.90
2018-02-02T13:53:57.729Z,70.00
2018-02-02T13:56:25.992Z,70.50
2018-02-02T13:58:54.241Z,69.70
2018-02-02T14:01:22.461Z,68.70
2018-02-02T14:03:51.819Z,69.60
2018-02-02T14:06:20.042Z,69.60
2018-02-02T14:08:48.284Z,70.20
2018-02-02T14:11:16.541Z,66.40
2018-02-02T14:13:44.781Z,65.80
2018-02-02T14:16:13.018Z,66.40
2018-02-02T14:18:41.549Z,66.60
2018-02-02T14:21:09.787Z,66.40
2018-02-02T14:23:38.140Z,66.20
2018-02-02T14:26:06.613Z,67.80
2018-02-02T14:28:34.861Z,65.90
2018-02-02T14:31:03.114Z,68.50
2018-02-02T14:33:31.378Z,68.00
2018-02-02T14:35:59.625Z,65.90
2018-02-02T14:38:28.150Z,67.30
2018-02-02T14:40:57.182Z,67.90
2018-02-02T14:43:25.426Z,67.80
2018-02-02T14:45:53.657Z,67.40
2018-02-02T14:48:22.317Z,66.10
2018-02-02T14:50:50.662Z,67.40
2018-02-02T14:53:19.661Z,67.40
2018-02-02T14:55:48.726Z,68.00
2018-02-02T14:58:16.949Z,67.90
2018-02-02T15:00:45.191Z,67.90
2018-02-02T15:03:13.449Z,67.20
2018-02-02T15:05:41.691Z,66.40
2018-02-02T15:08:09.922Z,68.80
2018-02-02T15:10:38.354Z,70.00
2018-02-02T15:13:06.591Z,70.10
2018-02-02T15:15:34.821Z,71.50
2018-02-02T15:18:03.081Z,71.90
2018-02-02T15:20:31.358Z,71.90
2018-02-02T15:23:00.294Z,72.10
2018-02-02T15:25:28.550Z,71.80
2018-02-02T15:27:56.789Z,71.30
2018-02-02T15:30:25.031Z,72.30
2018-02-02T15:32:53.580Z,71.90
2018-02-02T15:35:21.802Z,72.80
2018-02-02T15:37:50.818Z,74.10
2018-02-02T15:40:19.302Z,74.00
2018-02-02T15:42:47.544Z,73.40
2018-02-02T15:45:15.785Z,73.80
2018-02-02T15:47:44.170Z,75.60
2018-02-02T15:50:12.391Z,73.90
2018-02-02T15:52:42.565Z,74.30
2018-02-02T15:55:11.452Z,74.30
2018-02-02T15:57:39.832Z,74.70
2018-02-02T16:00:08.045Z,76.00
2018-02-02T16:02:37.071Z,76.20
2018-02-02T16:05:05.312Z,76.20
2018-02-02T16:07:33.661Z,75.10
2018-02-02T16:10:02.174Z,74.20
2018-02-02T16:12:30.415Z,73.50
2018-02-02T16:14:58.654Z,75.60
2018-02-02T16:17:27.182Z,76.30
2018-02-02T16:19:56.778Z,76.60
2018-02-02T16:22:24.993Z,77.70
2018-02-02T16:24:54.036Z,79.70
2018-02-02T16:27:22.265Z,79.60
2018-02-02T16:29:50.910Z,79.70
2018-02-02T16:32:20.664Z,79.20
2018-02-02T16:34:49.657Z,83.70
2018-02-02T16:37:18.812Z,82.00
2018-02-02T16:39:47.686Z,82.00
2018-02-02T16:42:15.989Z,80.60
2018-02-02T16:44:45.290Z,81.60
2018-02-02T16:47:17.686Z,80.70
2018-02-02T16:49:46.042Z,84.40
2018-02-02T16:52:14.425Z,83.10
2018-02-02T16:54:42.694Z,83.90
2018-02-02T16:57:11.118Z,82.90
2018-02-02T16:59:39.383Z,81.80
2018-02-02T17:02:07.777Z,82.40
2018-02-02T17:04:36.018Z,83.00
2018-02-02T17:07:05.622Z,83.80
2018-02-02T17:09:34.022Z,83.50
2018-02-02T17:12:02.377Z,83.40
2018-02-02T17:14:32.605Z,82.70
2018-02-02T17:17:01.054Z,82.90
2018-02-02T17:19:30.013Z,84.80
2018-02-02T17:21:58.274Z,83.90
2018-02-02T17:24:27.117Z,83.70
2018-02-02T17:26:55.353Z,83.60
2018-02-02T17:29:23.601Z,85.60
2018-02-02T17:31:51.894Z,85.30
2018-02-02T17:34:20.899Z,85.50
2018-02-02T17:36:49.905Z,85.80
2018-02-02T17:39:18.933Z,86.40
2018-02-02T17:41:47.569Z,86.40
2018-02-02T17:44:16.567Z,87.90
2018-02-02T17:46:45.650Z,89.40
2018-02-02T17:49:13.888Z,89.30
2018-02-02T17:51:42.130Z,89.10
2018-02-02T17:54:10.392Z,87.30
2018-02-02T17:56:39.394Z,85.10
2018-02-02T17:59:07.630Z,85.10
2018-02-02T18:01:50.754Z,86.50
2018-02-02T18:04:18.993Z,84.30
2018-02-02T18:06:47.235Z,85.00
2018-02-02T18:09:15.501Z,88.60
2018-02-02T18:11:44.510Z,86.80
2018-02-02T18:14:12.741Z,86.80
2018-02-02T18:16:41.006Z,87.20
2018-02-02T18:19:09.234Z,89.20
2018-02-02T18:21:38.246Z,87.40
2018-02-02T18:24:06.953Z,87.40
2018-02-02T18:26:35.239Z,90.20
2018-02-02T18:29:03.482Z,90.30
2018-02-02T18:31:31.749Z,89.00
2018-02-02T18:34:00.757Z,90.90
2018-02-02T18:36:29.085Z,90.90
2018-02-02T18:38:57.658Z,90.70
2018-02-02T18:41:25.879Z,88.20
2018-02-02T18:43:55.170Z,90.00
2018-02-02T18:46:24.525Z,90.00
2018-02-02T18:48:52.769Z,90.00
2018-02-02T18:51:21.013Z,90.80
2018-02-02T18:53:49.278Z,89.90
2018-02-02T18:56:17.525Z,89.10
2018-02-02T18:58:45.765Z,87.50
2018-02-02T19:01:14.794Z,87.00
2018-02-02T19:03:43.025Z,86.90
2018-02-02T19:06:11.262Z,85.80
2018-02-02T19:08:39.934Z,88.50
2018-02-02T19:11:08.233Z,87.40
2018-02-02T19:13:36.502Z,86.40
2018-02-02T19:16:04.770Z,89.10
2018-02-02T19:18:33.346Z,87.30
2018-02-02T19:21:01.574Z,84.40
2018-02-02T19:23:29.841Z,87.00
2018-02-02T19:25:58.077Z,89.90
2018-02-02T19:28:26.314Z,88.70
2018-02-02T19:30:55.684Z,85.90
2018-02-02T19:33:23.921Z,85.80
2018-02-02T19:35:52.325Z,86.90
2018-02-02T19:38:20.587Z,87.00
2018-02-02T19:40:48.829Z,85.70
2018-02-02T19:43:17.837Z,87.60
2018-02-02T19:45:46.513Z,87.60
2018-02-02T19:48:14.749Z,87.90
2018-02-02T19:50:42.981Z,89.30
2018-02-02T19:53:11.629Z,88.10
2018-02-02T19:55:39.871Z,90.20
2018-02-02T19:58:08.109Z,90.20
2018-02-02T20:00:36.385Z,90.30
2018-02-02T20:03:04.633Z,90.70
2018-02-02T20:05:32.875Z,90.80
2018-02-02T20:08:01.142Z,90.70
2018-02-02T20:10:29.374Z,90.40
2018-02-02T20:12:58.382Z,89.30
2018-02-02T20:15:26.789Z,90.00
2018-02-02T20:17:55.032Z,91.10
2018-02-02T20:20:23.269Z,90.10
2018-02-02T20:22:51.574Z,90.30
2018-02-02T20:25:20.589Z,90.30
2018-02-02T20:27:48.833Z,90.30
2018-02-02T20:30:17.121Z,91.30
2018-02-02T20:32:45.360Z,90.90
2018-02-02T20:35:13.606Z,89.00
2018-02-02T20:37:42.628Z,89.10
2018-02-02T20:40:10.852Z,89.30
2018-02-02T20:42:39.861Z,90.00
2018-02-02T20:45:08.124Z,90.00
2018-02-02T20:47:36.598Z,90.70
2018-02-02T20:50:05.606Z,89.90
2018-02-02T20:52:34.027Z,89.80
2018-02-02T20:55:02.266Z,89.80
2018-02-02T20:57:30.501Z,90.00
2018-02-02T20:59:59.145Z,90.10
2018-02-02T21:05:02.414Z,90.40
2018-02-02T21:07:30.654Z,90.60
2018-02-02T21:09:58.894Z,91.30
2018-02-02T21:12:27.166Z,91.70
2018-02-02T21:14:56.165Z,89.30
2018-02-02T21:17:24.405Z,90.00
2018-02-02T21:19:52.941Z,89.50
2018-02-02T21:22:21.182Z,90.00
2018-02-02T21:24:49.654Z,89.80
2018-02-02T21:27:18.682Z,89.40
2018-02-02T21:29:46.917Z,88.70
2018-02-02T21:32:15.161Z,89.70
2018-02-02T21:34:43.434Z,88.80
2018-02-02T21:37:11.673Z,89.90
2018-02-02T21:39:40.098Z,90.60
2018-02-02T21:42:08.785Z,89.00
2018-02-02T21:44:37.006Z,91.10
2018-02-02T21:47:06.033Z,90.30
2018-02-02T21:49:34.530Z,90.30
2018-02-02T21:52:02.769Z,89.40
2018-02-02T21:54:31.291Z,88.70
2018-02-02T21:56:59.534Z,89.00
2018-02-02T21:59:27.769Z,89.00
2018-02-02T22:01:56.005Z,87.30
2018-02-02T22:04:24.429Z,86.90
2018-02-02T22:06:52.671Z,86.90
2018-02-02T22:09:20.911Z,87.80
2018-02-02T22:11:49.174Z,88.70
2018-02-02T22:14:18.186Z,89.50
2018-02-02T22:16:46.426Z,89.40
2018-02-02T22:19:14.701Z,90.00
2018-02-02T22:21:43.774Z,89.40
2018-02-02T22:24:11.990Z,89.30
2018-02-02T22:26:41.333Z,89.50
2018-02-02T22:29:09.585Z,89.40
2018-02-02T22:31:37.891Z,89.00
2018-02-02T22:34:06.145Z,87.80
2018-02-02T22:36:34.416Z,88.40
2018-02-02T22:39:02.653Z,88.10
2018-02-02T22:41:31.037Z,87.30
2018-02-02T22:43:59.257Z,87.80
2018-02-02T22:46:27.501Z,86.20
2018-02-02T22:48:55.840Z,86.80
2018-02-02T22:51:24.457Z,87.90
2018-02-02T22:53:52.702Z,87.50
2018-02-02T22:56:20.965Z,86.60
2018-02-02T22:58:49.201Z,88.20
2018-02-02T23:01:17.437Z,89.10
2018-02-02T23:03:45.705Z,87.60
2018-02-02T23:06:13.943Z,86.30
2018-02-02T23:08:42.194Z,86.40
2018-02-02T23:11:10.934Z,85.70
2018-02-02T23:13:39.164Z,86.20
2018-02-02T23:16:07.406Z,87.50
2018-02-02T23:18:35.717Z,87.60
2018-02-02T23:21:04.722Z,87.20
2018-02-02T23:23:35.821Z,89.20
2018-02-02T23:26:04.117Z,89.20
2018-02-02T23:28:32.353Z,88.20
2018-02-02T23:31:00.600Z,88.90
2018-02-02T23:33:29.227Z,88.20
2018-02-02T23:35:57.441Z,88.40
2018-02-02T23:38:26.447Z,89.40
2018-02-02T23:40:55.495Z,90.10
2018-02-02T23:43:23.714Z,90.10
2018-02-02T23:45:51.956Z,89.50
2018-02-02T23:48:20.209Z,89.70
2018-02-02T23:50:48.458Z,89.10
2018-02-02T23:53:17.026Z,89.60
2018-02-02T23:55:46.361Z,90.20
2018-02-02T23:58:14.610Z,90.20
